This is the latest recevied weather packets stored in our database for station/object HB9MIR-13. If no packets are shown the sender has not sent any weather packets the latest 10 day(s).
| Time | Temp. | Humidity | Pressure | Rain* | Wind** | Luminosity | Snow |
|---|---|---|---|---|---|---|---|
| 1777667794 | 10.56° C | 67% | 1021.6 hPa | 0 mm | - | 0 W/m² | - |
| 1777667106 | 10.56° C | 68% | 1021.5 hPa | 0 mm | - | 0 W/m² | - |
| 1777666370 | 11.67° C | 62% | 1021.5 hPa | 0 mm | - | 0 W/m² | - |
| 1777665668 | 11.67° C | 66% | 1021.4 hPa | 0 mm | - | 0 W/m² | - |
| 1777664980 | 11.67° C | 64% | 1021.4 hPa | 0 mm | - | 0 W/m² | - |
| 1777664293 | 12.22° C | 62% | 1021.2 hPa | 0 mm | - | 0 W/m² | - |
| 1777663606 | 13.33° C | 57% | 1021 hPa | 0 mm | - | 0 W/m² | - |
| 1777662917 | 13.89° C | 57% | 1020.9 hPa | 0 mm | - | 0 W/m² | - |
| 1777662229 | 13.89° C | 55% | 1020.9 hPa | 0 mm | - | 0 W/m² | - |
| 1777661553 | 14.44° C | 55% | 1020.7 hPa | 0 mm | - | 1 W/m² | - |
| 1777660852 | 15° C | 53% | 1020.6 hPa | 0 mm | - | 3 W/m² | - |
| 1777660165 | 16.67° C | 52% | 1020.5 hPa | 0 mm | - | 8 W/m² | - |
| 1777659479 | 17.78° C | 52% | 1020.2 hPa | 0 mm | - | 15 W/m² | - |
| 1777658790 | 20° C | 37% | 1020.2 hPa | 0 mm | - | 21 W/m² | - |
| 1777658054 | 20.56° C | 38% | 1020.2 hPa | 0 mm | - | 28 W/m² | - |
| 1777657353 | 21.67° C | 31% | 1020.1 hPa | 0 mm | - | 33 W/m² | - |
| 1777656666 | 22.22° C | 37% | 1020 hPa | 0 mm | - | 38 W/m² | - |
| 1777655978 | 22.78° C | 31% | 1019.8 hPa | 0 mm | - | 67 W/m² | - |
| 1777655290 | 22.78° C | 31% | 1019.9 hPa | 0 mm | - | 64 W/m² | - |
| 1777654554 | 22.78° C | 33% | 1019.7 hPa | 0 mm | - | 80 W/m² | - |
| 1777653841 | 22.78° C | 32% | 1019.7 hPa | 0 mm | - | 53 W/m² | - |
| 1777653153 | 22.78° C | 29% | 1019.7 hPa | 0 mm | - | 178 W/m² | - |
| 1777652466 | 23.33° C | 31% | 1020.1 hPa | 0 mm | - | 231 W/m² | - |
| 1777651777 | 23.33° C | 33% | 1020.1 hPa | 0 mm | - | 271 W/m² | - |
| 1777651090 | 23.33° C | 31% | 1020.3 hPa | 0 mm | - | 303 W/m² | - |
* Rain latest hour (hover to see other rain measurements)
** Current wind speed in m/s (hover to see current wind gust speed)